TimeCST,TemperatureF,Dew PointF,Humidity,Sea Level PressureIn,VisibilityMPH,Wind Direction,Wind SpeedMPH,Gust SpeedMPH,PrecipitationIn,Events,Conditions,WindDirDegrees,DateUTC
12:15 AM,36.0,31.1,82,30.10,10.0,ENE,4.6,-,N/A,,Overcast,70,2013-12-08 06:15:00
12:35 AM,36.0,31.1,82,30.10,10.0,ENE,6.9,-,N/A,,Overcast,70,2013-12-08 06:35:00
12:55 AM,35.8,31.1,83,30.10,10.0,ENE,3.5,-,N/A,,Overcast,70,2013-12-08 06:55:00
1:15 AM,35.8,31.1,83,30.09,10.0,NE,5.8,-,N/A,,Overcast,50,2013-12-08 07:15:00
1:35 AM,35.8,31.1,83,30.09,10.0,NE,4.6,-,N/A,,Overcast,50,2013-12-08 07:35:00
1:55 AM,35.6,31.1,84,30.08,10.0,NE,4.6,-,N/A,,Overcast,40,2013-12-08 07:55:00
2:15 AM,35.6,31.1,84,30.07,10.0,NE,5.8,-,N/A,,Overcast,40,2013-12-08 08:15:00
2:35 AM,35.6,31.1,84,30.07,10.0,North,-9999.0,-,N/A,,Overcast,0,2013-12-08 08:35:00
2:55 AM,35.2,31.1,85,30.06,10.0,North,-9999.0,-,N/A,,Overcast,0,2013-12-08 08:55:00
3:15 AM,34.7,30.9,86,30.06,10.0,North,-9999.0,-,N/A,,Overcast,0,2013-12-08 09:15:00
3:35 AM,34.7,31.5,88,30.06,10.0,NNE,3.5,-,N/A,,Overcast,30,2013-12-08 09:35:00
3:55 AM,34.9,31.1,86,30.06,10.0,North,-9999.0,-,N/A,,Overcast,0,2013-12-08 09:55:00
4:15 AM,34.9,31.5,87,30.06,10.0,North,-9999.0,-,N/A,,Overcast,0,2013-12-08 10:15:00
4:35 AM,34.9,31.1,86,30.06,10.0,NNE,3.5,-,N/A,,Overcast,20,2013-12-08 10:35:00
4:55 AM,34.0,30.7,88,30.06,10.0,North,-9999.0,-,N/A,,Overcast,0,2013-12-08 10:55:00
5:15 AM,34.3,31.1,88,30.06,10.0,NNE,3.5,-,N/A,,Overcast,30,2013-12-08 11:15:00
5:35 AM,34.3,31.1,88,30.05,10.0,North,-9999.0,-,N/A,,Overcast,0,2013-12-08 11:35:00
5:55 AM,34.3,30.9,87,30.05,10.0,North,-9999.0,-,N/A,,Overcast,0,2013-12-08 11:55:00
6:15 AM,34.0,31.1,89,30.05,10.0,North,-9999.0,-,N/A,,Overcast,0,2013-12-08 12:15:00
6:35 AM,33.3,30.7,90,30.06,10.0,North,-9999.0,-,N/A,,Overcast,0,2013-12-08 12:35:00
6:55 AM,33.1,30.7,91,30.06,10.0,North,-9999.0,-,N/A,,Overcast,0,2013-12-08 12:55:00
7:15 AM,32.9,30.6,91,30.06,10.0,North,-9999.0,-,N/A,,Overcast,0,2013-12-08 13:15:00
7:35 AM,32.5,30.6,92,30.06,10.0,North,-9999.0,-,N/A,,Overcast,0,2013-12-08 13:35:00
7:55 AM,32.9,30.4,90,30.07,10.0,North,-9999.0,-,N/A,,Overcast,0,2013-12-08 13:55:00
8:15 AM,32.4,30.4,92,30.07,10.0,North,-9999.0,-,N/A,,Overcast,0,2013-12-08 14:15:00
8:35 AM,32.9,30.7,92,30.07,10.0,North,-9999.0,-,N/A,,Overcast,0,2013-12-08 14:35:00
8:55 AM,32.2,30.4,93,30.07,10.0,North,-9999.0,-,N/A,,Overcast,0,2013-12-08 14:55:00
9:15 AM,32.7,30.7,92,30.08,10.0,North,-9999.0,-,N/A,,Overcast,0,2013-12-08 15:15:00
9:35 AM,33.3,30.9,91,30.08,10.0,East,4.6,-,N/A,,Overcast,80,2013-12-08 15:35:00
9:55 AM,33.3,30.9,91,30.09,10.0,Calm,Calm,-,N/A,,Overcast,0,2013-12-08 15:55:00
10:15 AM,33.6,31.1,90,30.09,10.0,Calm,Calm,-,N/A,,Overcast,0,2013-12-08 16:15:00
10:35 AM,34.9,31.1,86,30.08,10.0,Calm,Calm,-,N/A,,Overcast,0,2013-12-08 16:35:00
10:55 AM,36.3,31.6,83,30.07,10.0,ESE,3.5,-,N/A,,Mostly Cloudy,110,2013-12-08 16:55:00
11:15 AM,37.4,31.6,80,30.07,10.0,Calm,Calm,-,N/A,,Clear,0,2013-12-08 17:15:00
11:35 AM,39.6,31.6,73,30.06,10.0,Calm,Calm,-,N/A,,Clear,0,2013-12-08 17:35:00
11:55 AM,41.5,32.0,69,30.05,10.0,Calm,Calm,-,N/A,,Clear,0,2013-12-08 17:55:00
12:15 PM,44.4,32.2,62,30.04,10.0,Calm,Calm,-,N/A,,Clear,0,2013-12-08 18:15:00
12:35 PM,45.5,32.2,60,30.03,10.0,Calm,Calm,-,N/A,,Clear,0,2013-12-08 18:35:00
12:55 PM,47.5,32.4,56,30.01,10.0,Calm,Calm,-,N/A,,Clear,0,2013-12-08 18:55:00
1:15 PM,50.4,32.7,51,29.99,10.0,Calm,Calm,-,N/A,,Clear,0,2013-12-08 19:15:00
1:35 PM,51.6,32.5,48,29.97,10.0,Calm,Calm,-,N/A,,Clear,0,2013-12-08 19:35:00
1:55 PM,54.3,32.5,44,29.95,10.0,Calm,Calm,-,N/A,,Clear,0,2013-12-08 19:55:00
2:15 PM,56.3,32.4,40,29.95,10.0,SSW,4.6,-,N/A,,Clear,200,2013-12-08 20:15:00
2:35 PM,57.2,32.2,39,29.94,10.0,Calm,Calm,-,N/A,,Clear,0,2013-12-08 20:35:00
2:55 PM,58.1,32.4,38,29.93,10.0,Calm,Calm,-,N/A,,Clear,0,2013-12-08 20:55:00
3:15 PM,59.5,32.2,36,29.93,10.0,Calm,Calm,-,N/A,,Clear,0,2013-12-08 21:15:00
3:35 PM,59.7,32.9,36,29.93,10.0,Calm,Calm,-,N/A,,Clear,0,2013-12-08 21:35:00
3:55 PM,60.6,32.2,34,29.92,10.0,SE,3.5,-,N/A,,Clear,130,2013-12-08 21:55:00
4:15 PM,60.8,32.0,34,29.92,10.0,Calm,Calm,-,N/A,,Clear,0,2013-12-08 22:15:00
4:35 PM,61.3,32.2,33,29.92,10.0,ESE,3.5,-,N/A,,Clear,120,2013-12-08 22:35:00
4:55 PM,61.3,32.0,33,29.92,10.0,Calm,Calm,-,N/A,,Clear,0,2013-12-08 22:55:00
5:15 PM,60.8,32.0,34,29.92,10.0,SSW,3.5,-,N/A,,Clear,210,2013-12-08 23:15:00
5:35 PM,59.5,32.4,36,29.93,10.0,South,4.6,-,N/A,,Clear,190,2013-12-08 23:35:00
5:55 PM,57.7,32.9,39,29.93,10.0,SSW,3.5,-,N/A,,Clear,200,2013-12-08 23:55:00
6:15 PM,55.2,33.1,43,29.93,10.0,SW,4.6,-,N/A,,Clear,230,2013-12-09 00:15:00
6:35 PM,53.6,32.9,45,29.94,10.0,WSW,3.5,-,N/A,,Clear,240,2013-12-09 00:35:00
6:55 PM,51.8,32.7,48,29.94,10.0,WNW,4.6,-,N/A,,Clear,290,2013-12-09 00:55:00
7:15 PM,50.0,32.5,51,29.94,10.0,NW,4.6,-,N/A,,Clear,320,2013-12-09 01:15:00
7:35 PM,49.6,32.9,53,29.94,10.0,NNW,3.5,-,N/A,,Clear,330,2013-12-09 01:35:00
7:55 PM,48.4,32.9,55,29.94,10.0,NW,6.9,-,N/A,,Clear,320,2013-12-09 01:55:00
8:15 PM,47.8,32.9,56,29.95,10.0,NNW,6.9,-,N/A,,Clear,330,2013-12-09 02:15:00
8:35 PM,48.0,32.9,56,29.95,10.0,NW,6.9,-,N/A,,Clear,320,2013-12-09 02:35:00
8:55 PM,47.5,32.0,55,29.95,10.0,NNW,8.1,-,N/A,,Clear,340,2013-12-09 02:55:00
9:15 PM,47.3,32.0,55,29.95,10.0,North,9.2,-,N/A,,Clear,350,2013-12-09 03:15:00
9:35 PM,48.4,31.6,52,29.95,10.0,North,8.1,-,N/A,,Clear,350,2013-12-09 03:35:00
9:55 PM,48.2,29.1,48,29.95,10.0,North,5.8,-,N/A,,Clear,350,2013-12-09 03:55:00
10:15 PM,47.7,27.5,46,29.95,10.0,NNE,3.5,-,N/A,,Clear,20,2013-12-09 04:15:00
10:35 PM,45.9,29.3,52,29.95,10.0,ENE,4.6,-,N/A,,Clear,60,2013-12-09 04:35:00
10:55 PM,46.2,31.8,57,29.96,10.0,Calm,Calm,-,N/A,,Clear,0,2013-12-09 04:55:00
11:15 PM,45.9,28.0,50,29.96,10.0,Calm,Calm,-,N/A,,Clear,0,2013-12-09 05:15:00
11:35 PM,47.1,30.2,52,29.97,10.0,Calm,Calm,-,N/A,,Clear,0,2013-12-09 05:35:00
11:55 PM,46.8,31.6,56,29.97,10.0,Calm,Calm,-,N/A,,Clear,0,2013-12-09 05:55:00